createdAt,value
2018-09-29T00:00:05.687Z,1.33
2018-09-29T00:02:32.356Z,0.70
2018-09-29T00:04:59.232Z,0.70
2018-09-29T00:07:26.016Z,1.27
2018-09-29T00:09:52.775Z,1.07
2018-09-29T00:12:19.539Z,0.97
2018-09-29T00:14:46.228Z,2.07
2018-09-29T00:17:13.101Z,2.30
2018-09-29T00:19:39.819Z,3.40
2018-09-29T00:22:06.490Z,0.50
2018-09-29T00:24:33.284Z,1.77
2018-09-29T00:27:00.060Z,0.70
2018-09-29T00:29:26.844Z,1.20
2018-09-29T00:31:53.633Z,1.50
2018-09-29T00:34:20.414Z,0.93
2018-09-29T00:36:47.147Z,2.27
2018-09-29T00:39:13.843Z,4.73
2018-09-29T00:41:40.625Z,2.20
2018-09-29T00:44:07.391Z,1.00
2018-09-29T00:46:34.121Z,0.97
2018-09-29T00:49:00.789Z,1.03
2018-09-29T00:51:27.520Z,0.97
2018-09-29T00:53:54.295Z,3.07
2018-09-29T00:56:21.142Z,1.27
2018-09-29T00:58:47.989Z,4.50
2018-09-29T01:01:14.669Z,1.00
2018-09-29T01:03:41.435Z,0.80
2018-09-29T01:06:08.099Z,2.13
2018-09-29T01:08:34.805Z,2.37
2018-09-29T01:11:01.563Z,3.13
2018-09-29T01:13:28.304Z,1.30
2018-09-29T01:15:54.994Z,1.50
2018-09-29T01:18:21.733Z,1.97
2018-09-29T01:20:48.465Z,2.17
2018-09-29T01:23:15.261Z,1.23
2018-09-29T01:25:42.003Z,1.10
2018-09-29T01:28:08.707Z,1.03
2018-09-29T01:30:35.503Z,1.10
2018-09-29T01:33:02.338Z,2.07
2018-09-29T01:35:29.053Z,0.97
2018-09-29T01:37:55.823Z,0.90
2018-09-29T01:40:22.529Z,0.80
2018-09-29T01:42:49.286Z,0.80
2018-09-29T01:45:16.033Z,1.17
2018-09-29T01:47:42.875Z,0.93
2018-09-29T01:50:09.612Z,1.20
2018-09-29T01:52:36.316Z,5.10
2018-09-29T01:55:03.073Z,0.87
2018-09-29T01:57:29.944Z,2.10
2018-09-29T01:59:56.707Z,1.23
2018-09-29T02:02:23.448Z,6.97
2018-09-29T02:04:51.652Z,2.13
2018-09-29T02:07:18.435Z,0.83
2018-09-29T02:09:45.228Z,0.60
2018-09-29T02:12:12.000Z,1.53
2018-09-29T02:14:38.703Z,3.90
2018-09-29T02:17:05.484Z,1.07
2018-09-29T02:19:32.213Z,1.60
2018-09-29T02:21:59.090Z,1.13
2018-09-29T02:24:25.859Z,1.67
2018-09-29T02:26:52.628Z,1.70
2018-09-29T02:29:19.321Z,0.83
2018-09-29T02:31:46.072Z,2.03
2018-09-29T02:34:13.086Z,2.53
2018-09-29T02:36:39.917Z,1.00
2018-09-29T02:39:12.379Z,0.93
2018-09-29T02:41:39.216Z,2.20
2018-09-29T02:44:05.948Z,2.47
2018-09-29T02:46:32.715Z,1.37
2018-09-29T02:48:59.473Z,2.47
2018-09-29T02:51:26.167Z,1.00
2018-09-29T02:53:52.974Z,2.33
2018-09-29T02:56:19.708Z,1.23
2018-09-29T02:58:46.473Z,1.13
2018-09-29T03:01:13.337Z,3.23
2018-09-29T03:03:40.040Z,1.53
2018-09-29T03:06:06.740Z,2.13
2018-09-29T03:08:33.462Z,1.90
2018-09-29T03:11:00.183Z,1.53
2018-09-29T03:13:26.974Z,1.10
2018-09-29T03:15:53.759Z,1.57
2018-09-29T03:18:20.487Z,2.37
2018-09-29T03:20:47.305Z,2.43
2018-09-29T03:23:14.253Z,1.20
2018-09-29T03:25:40.998Z,2.10
2018-09-29T03:28:07.689Z,1.10
2018-09-29T03:30:34.489Z,0.80
2018-09-29T03:33:01.236Z,2.10
2018-09-29T03:35:27.968Z,0.97
2018-09-29T03:37:54.785Z,0.87
2018-09-29T03:40:21.510Z,0.90
2018-09-29T03:42:48.277Z,2.60
2018-09-29T03:45:15.069Z,2.73
2018-09-29T03:47:41.945Z,1.10
2018-09-29T03:50:08.657Z,2.17
2018-09-29T03:52:35.426Z,1.97
2018-09-29T03:55:02.124Z,1.20
2018-09-29T03:57:28.856Z,1.00
2018-09-29T03:59:55.639Z,2.10
2018-09-29T04:02:22.346Z,1.07
2018-09-29T04:04:49.091Z,1.40
2018-09-29T04:07:15.882Z,1.03
2018-09-29T04:09:42.646Z,1.07
2018-09-29T04:12:09.456Z,0.83
2018-09-29T04:14:36.208Z,3.47
2018-09-29T04:17:02.928Z,1.13
2018-09-29T04:19:29.568Z,0.93
2018-09-29T04:21:56.310Z,1.30
2018-09-29T04:24:23.097Z,1.10
2018-09-29T04:26:49.851Z,1.67
2018-09-29T04:29:17.236Z,3.27
2018-09-29T04:31:44.150Z,1.17
2018-09-29T04:34:11.723Z,3.20
2018-09-29T04:36:38.507Z,1.47
2018-09-29T04:39:05.263Z,1.23
2018-09-29T04:41:31.968Z,1.27
2018-09-29T04:43:58.771Z,4.57
2018-09-29T04:46:25.509Z,1.40
2018-09-29T04:48:52.293Z,2.60
2018-09-29T04:51:19.069Z,1.93
2018-09-29T04:53:45.806Z,3.70
2018-09-29T04:56:12.515Z,1.17
2018-09-29T04:58:39.275Z,1.23
2018-09-29T05:01:06.223Z,2.20
2018-09-29T05:03:32.997Z,2.20
2018-09-29T05:05:59.897Z,1.43
2018-09-29T05:08:26.693Z,5.90
2018-09-29T05:10:53.641Z,1.27
2018-09-29T05:13:20.485Z,1.17
2018-09-29T05:15:47.464Z,1.67
2018-09-29T05:18:14.517Z,1.97
2018-09-29T05:20:41.257Z,1.10
2018-09-29T05:23:08.144Z,1.23
2018-09-29T05:25:34.975Z,3.40
2018-09-29T05:28:02.377Z,1.03
2018-09-29T05:30:29.087Z,2.33
2018-09-29T05:32:56.013Z,1.30
2018-09-29T05:35:22.797Z,1.40
2018-09-29T05:37:50.938Z,0.90
2018-09-29T05:40:17.901Z,1.20
2018-09-29T05:42:45.321Z,1.23
2018-09-29T05:45:12.131Z,3.23
2018-09-29T05:47:39.183Z,1.47
2018-09-29T05:50:05.954Z,1.33
2018-09-29T05:52:32.741Z,2.43
2018-09-29T05:55:00.347Z,1.10
2018-09-29T05:57:27.312Z,0.90
2018-09-29T05:59:54.251Z,1.20
2018-09-29T06:02:21.027Z,4.17
2018-09-29T06:04:47.836Z,1.30
2018-09-29T06:07:14.748Z,3.60
2018-09-29T06:09:42.440Z,2.20
2018-09-29T06:12:09.326Z,1.67
2018-09-29T06:14:36.161Z,1.20
2018-09-29T06:17:03.157Z,1.10
2018-09-29T06:19:29.945Z,1.27
2018-09-29T06:21:56.899Z,1.30
2018-09-29T06:24:23.747Z,0.87
2018-09-29T06:26:51.067Z,0.90
2018-09-29T06:29:17.957Z,2.33
2018-09-29T06:31:44.719Z,1.83
2018-09-29T06:34:11.594Z,6.03
2018-09-29T06:36:38.495Z,1.93
2018-09-29T06:39:05.347Z,1.50
2018-09-29T06:41:33.069Z,3.67
2018-09-29T06:43:59.913Z,3.03
2018-09-29T06:46:26.753Z,1.07
2018-09-29T06:48:53.625Z,1.40
2018-09-29T06:51:20.515Z,2.70
2018-09-29T06:53:47.504Z,3.53
2018-09-29T06:56:14.209Z,1.57
2018-09-29T06:58:41.098Z,2.20
2018-09-29T07:01:07.936Z,1.47
2018-09-29T07:03:34.703Z,1.20
2018-09-29T07:06:01.451Z,1.93
2018-09-29T07:08:28.272Z,1.33
2018-09-29T07:13:27.636Z,1.40
2018-09-29T07:15:54.442Z,1.20
2018-09-29T07:18:21.124Z,1.67
2018-09-29T07:20:47.793Z,1.57
2018-09-29T07:23:14.516Z,1.37
2018-09-29T07:25:41.530Z,1.77
2018-09-29T07:28:08.524Z,2.00
2018-09-29T07:30:35.370Z,1.47
2018-09-29T07:33:02.072Z,1.70
2018-09-29T07:35:28.846Z,2.23
2018-09-29T07:37:55.723Z,1.37
2018-09-29T07:40:22.682Z,1.93
2018-09-29T07:42:49.580Z,2.10
2018-09-29T07:45:17.708Z,2.10
2018-09-29T07:47:44.439Z,2.27
2018-09-29T07:50:11.406Z,2.67
2018-09-29T07:52:38.319Z,1.63
2018-09-29T07:55:05.151Z,2.93
2018-09-29T07:57:31.861Z,3.70
2018-09-29T07:59:58.752Z,4.33
2018-09-29T08:02:25.700Z,2.03
2018-09-29T08:04:53.026Z,2.03
2018-09-29T08:07:20.379Z,1.63
2018-09-29T08:09:47.993Z,3.60
2018-09-29T08:12:14.783Z,2.83
2018-09-29T08:14:41.674Z,2.87
2018-09-29T08:17:08.596Z,2.57
2018-09-29T08:19:35.346Z,5.27
2018-09-29T08:22:03.221Z,6.30
2018-09-29T08:24:30.000Z,2.90
2018-09-29T08:26:56.920Z,3.07
2018-09-29T08:29:23.710Z,6.10
2018-09-29T08:31:50.596Z,4.37
2018-09-29T08:34:17.523Z,3.83
2018-09-29T08:36:44.386Z,4.27
2018-09-29T08:39:11.182Z,6.20
2018-09-29T08:41:37.896Z,7.23
2018-09-29T08:44:04.703Z,3.90
2018-09-29T08:46:31.601Z,2.23
2018-09-29T08:48:59.419Z,3.77
2018-09-29T08:51:26.240Z,4.00
2018-09-29T08:53:53.108Z,2.70
2018-09-29T08:56:19.842Z,2.63
2018-09-29T08:58:46.750Z,3.67
2018-09-29T09:01:13.619Z,1.77
2018-09-29T09:03:40.472Z,2.80
2018-09-29T09:06:07.310Z,5.17
2018-09-29T09:08:35.101Z,3.93
2018-09-29T09:11:01.880Z,2.23
2018-09-29T09:13:28.930Z,3.13
2018-09-29T09:15:56.312Z,1.33
2018-09-29T09:18:23.401Z,1.80
2018-09-29T09:20:50.120Z,2.80
2018-09-29T09:23:17.211Z,3.50
2018-09-29T09:25:43.806Z,3.93
2018-09-29T09:28:10.780Z,2.50
2018-09-29T09:30:37.927Z,2.73
2018-09-29T09:33:04.663Z,4.47
2018-09-29T09:35:31.471Z,6.77
2018-09-29T09:37:58.669Z,6.03
2018-09-29T09:40:25.673Z,5.03
2018-09-29T09:42:52.550Z,5.03
2018-09-29T09:45:19.381Z,6.60
2018-09-29T09:47:46.217Z,5.27
2018-09-29T09:50:13.652Z,7.43
2018-09-29T09:52:40.483Z,5.57
2018-09-29T09:55:07.277Z,5.47
2018-09-29T09:57:34.011Z,5.00
2018-09-29T10:00:00.695Z,4.97
2018-09-29T10:02:33.153Z,4.73
2018-09-29T10:05:00.063Z,5.03
2018-09-29T10:07:26.938Z,3.10
2018-09-29T10:09:53.897Z,1.83
2018-09-29T10:12:20.580Z,5.20
2018-09-29T10:14:47.303Z,5.17
2018-09-29T10:17:14.109Z,4.53
2018-09-29T10:19:41.157Z,2.43
2018-09-29T10:22:07.951Z,2.47
2018-09-29T10:24:34.841Z,5.33
2018-09-29T10:27:01.591Z,3.33
2018-09-29T10:29:28.548Z,3.20
2018-09-29T10:31:55.471Z,2.40
2018-09-29T10:34:22.175Z,4.47
2018-09-29T10:36:48.960Z,3.43
2018-09-29T10:39:15.702Z,4.20
2018-09-29T10:41:42.585Z,5.47
2018-09-29T10:44:09.813Z,2.77
2018-09-29T10:46:36.638Z,2.13
2018-09-29T10:49:03.568Z,1.57
2018-09-29T10:51:30.541Z,3.30
2018-09-29T10:53:57.388Z,2.63
2018-09-29T10:56:24.273Z,2.23
2018-09-29T10:58:51.201Z,1.90
2018-09-29T11:01:18.134Z,3.30
2018-09-29T11:03:45.006Z,3.47
2018-09-29T11:06:11.962Z,4.17
2018-09-29T11:08:38.742Z,1.83
2018-09-29T11:11:05.504Z,4.40
2018-09-29T11:13:32.227Z,2.07
2018-09-29T11:15:59.121Z,2.07
2018-09-29T11:18:26.197Z,2.07
2018-09-29T11:20:53.710Z,1.80
2018-09-29T11:23:20.631Z,1.07
2018-09-29T11:25:47.408Z,3.70
2018-09-29T11:28:14.133Z,1.47
2018-09-29T11:30:40.917Z,1.70
2018-09-29T11:33:07.707Z,3.53
2018-09-29T11:35:34.850Z,1.73
2018-09-29T11:38:01.704Z,1.67
2018-09-29T11:40:28.453Z,1.13
2018-09-29T11:42:55.263Z,1.73
2018-09-29T11:45:22.313Z,1.27
2018-09-29T11:47:49.042Z,4.67
2018-09-29T11:50:15.945Z,2.70
2018-09-29T11:52:42.678Z,3.07
2018-09-29T11:55:09.582Z,1.93
2018-09-29T11:57:36.314Z,1.10
2018-09-29T12:00:03.825Z,3.30
2018-09-29T12:02:30.715Z,1.57
2018-09-29T12:04:57.506Z,0.77
2018-09-29T12:07:24.279Z,1.73
2018-09-29T12:09:51.188Z,0.67
2018-09-29T12:12:17.913Z,3.97
2018-09-29T12:14:44.625Z,2.63
2018-09-29T12:17:11.441Z,1.60
2018-09-29T12:19:38.468Z,1.67
2018-09-29T12:22:05.521Z,3.50
2018-09-29T12:24:32.336Z,0.90
2018-09-29T12:26:59.098Z,1.90
2018-09-29T12:29:25.912Z,0.90
2018-09-29T12:31:52.895Z,0.70
2018-09-29T12:34:19.835Z,3.43
2018-09-29T12:36:46.950Z,1.67
2018-09-29T12:39:13.911Z,0.87
2018-09-29T12:41:40.821Z,2.30
2018-09-29T12:44:07.598Z,1.73
2018-09-29T12:46:34.346Z,2.33
2018-09-29T12:49:01.432Z,1.80
2018-09-29T12:51:28.508Z,1.37
2018-09-29T12:53:55.917Z,1.20
2018-09-29T12:56:22.770Z,0.70
2018-09-29T12:58:50.754Z,2.70
2018-09-29T13:01:17.560Z,1.80
2018-09-29T13:03:44.573Z,1.10
2018-09-29T13:06:12.083Z,1.53
2018-09-29T13:08:38.935Z,2.43
2018-09-29T13:11:05.896Z,0.80
2018-09-29T13:13:33.654Z,1.50
2018-09-29T13:16:01.230Z,0.83
2018-09-29T13:18:28.037Z,2.87
2018-09-29T13:20:54.755Z,1.77
2018-09-29T13:23:21.710Z,0.97
2018-09-29T13:25:49.175Z,3.60
2018-09-29T13:28:16.117Z,1.43
2018-09-29T13:30:42.939Z,0.60
2018-09-29T13:33:09.760Z,2.00
2018-09-29T13:35:36.782Z,0.93
2018-09-29T13:38:03.891Z,1.23
2018-09-29T13:40:30.801Z,4.97
2018-09-29T13:42:57.516Z,1.80
2018-09-29T13:45:24.357Z,2.83
2018-09-29T13:47:51.192Z,0.93
2018-09-29T13:50:17.974Z,1.57
2018-09-29T13:52:44.885Z,2.40
2018-09-29T13:55:11.853Z,4.40
2018-09-29T13:57:38.935Z,6.23
2018-09-29T14:00:05.841Z,1.70
2018-09-29T14:02:33.563Z,4.07
2018-09-29T14:05:01.821Z,0.93
2018-09-29T14:07:28.687Z,0.67
2018-09-29T14:09:55.401Z,2.43
2018-09-29T14:12:22.738Z,2.87
2018-09-29T14:14:49.672Z,1.03
2018-09-29T14:17:17.412Z,2.50
2018-09-29T14:19:44.176Z,1.17
2018-09-29T14:22:11.972Z,3.57
2018-09-29T14:24:38.908Z,3.37
2018-09-29T14:27:05.994Z,3.13
2018-09-29T14:29:32.900Z,3.33
2018-09-29T14:31:59.721Z,0.67
2018-09-29T14:34:27.164Z,1.63
2018-09-29T14:36:54.045Z,0.97
2018-09-29T14:39:20.788Z,3.63
2018-09-29T16:14:57.119Z,2.10
2018-09-29T16:17:24.223Z,2.33
2018-09-29T16:19:51.025Z,1.70
2018-09-29T16:22:17.969Z,0.80
2018-09-29T16:24:44.856Z,3.27
2018-09-29T16:27:11.672Z,2.57
2018-09-29T16:29:38.548Z,4.07
2018-09-29T16:32:05.545Z,1.63
2018-09-29T16:34:32.346Z,1.23
2018-09-29T16:36:59.189Z,2.50
2018-09-29T16:39:26.059Z,2.77
2018-09-29T16:41:52.881Z,1.53
2018-09-29T16:44:20.633Z,3.20
2018-09-29T16:46:48.808Z,3.53
2018-09-29T16:49:15.915Z,1.07
2018-09-29T16:51:43.660Z,1.53
2018-09-29T16:54:10.452Z,2.60
2018-09-29T16:56:37.713Z,1.20
2018-09-29T16:59:04.446Z,2.00
2018-09-29T17:01:31.275Z,4.07
2018-09-29T17:03:59.993Z,5.70
2018-09-29T17:06:26.948Z,7.13
2018-09-29T17:08:53.819Z,5.13
2018-09-29T17:11:20.584Z,8.27
2018-09-29T17:13:47.657Z,5.13
2018-09-29T17:16:15.391Z,3.63
2018-09-29T17:18:42.456Z,2.17
2018-09-29T17:21:10.581Z,3.47
2018-09-29T17:23:37.525Z,3.30
2018-09-29T17:26:04.420Z,1.80
2018-09-29T17:28:31.474Z,1.93
2018-09-29T17:30:58.233Z,2.20
2018-09-29T17:33:25.004Z,4.17
2018-09-29T17:35:51.930Z,1.50
2018-09-29T17:38:18.749Z,2.17
2018-09-29T17:40:45.423Z,4.53
2018-09-29T17:43:12.541Z,1.40
2018-09-29T17:45:39.493Z,7.17
2018-09-29T17:48:06.823Z,2.10
2018-09-29T17:50:34.356Z,5.80
2018-09-29T17:53:01.389Z,4.70
2018-09-29T17:55:28.162Z,4.53
2018-09-29T17:57:55.153Z,4.10
2018-09-29T18:00:22.178Z,4.50
2018-09-29T18:02:48.936Z,6.17
2018-09-29T18:05:15.694Z,1.67
2018-09-29T18:07:42.766Z,3.97
2018-09-29T18:10:09.748Z,5.23
2018-09-29T18:12:36.550Z,2.50
2018-09-29T18:15:03.907Z,4.13
2018-09-29T18:17:30.757Z,3.43
2018-09-29T18:19:57.596Z,4.83
2018-09-29T18:22:24.622Z,2.93
2018-09-29T18:24:52.155Z,3.20
2018-09-29T18:27:18.875Z,4.57
2018-09-29T18:29:46.213Z,4.03
2018-09-29T18:32:13.084Z,2.93
2018-09-29T18:34:39.811Z,5.37
2018-09-29T18:37:06.550Z,2.27
2018-09-29T18:39:33.260Z,2.90
2018-09-29T18:42:01.213Z,3.00
2018-09-29T18:44:28.832Z,2.13
2018-09-29T18:46:56.265Z,3.50
2018-09-29T18:49:23.147Z,4.83
2018-09-29T18:51:50.297Z,5.47
2018-09-29T18:54:16.995Z,2.70
2018-09-29T18:56:44.512Z,4.33
2018-09-29T18:59:11.322Z,3.97
2018-09-29T19:01:38.419Z,2.83
2018-09-29T19:04:05.196Z,3.70
2018-09-29T19:06:33.485Z,2.77
2018-09-29T19:09:15.741Z,3.90
2018-09-29T19:11:44.478Z,3.53
2018-09-29T19:14:11.193Z,3.87
2018-09-29T19:16:38.164Z,3.20
2018-09-29T19:19:05.512Z,2.50
2018-09-29T19:21:32.473Z,3.87
2018-09-29T19:23:59.793Z,3.63
2018-09-29T19:26:27.194Z,3.33
2018-09-29T19:28:54.089Z,5.17
2018-09-29T19:31:21.068Z,5.97
2018-09-29T19:33:48.071Z,5.60
2018-09-29T19:36:15.948Z,3.77
2018-09-29T19:38:43.507Z,6.33
2018-09-29T19:41:10.238Z,7.47
2018-09-29T19:43:37.600Z,7.10
2018-09-29T19:46:04.448Z,7.87
2018-09-29T19:48:31.718Z,8.27
2018-09-29T19:50:58.451Z,11.43
2018-09-29T19:53:25.153Z,8.73
2018-09-29T19:55:51.938Z,12.17
2018-09-29T19:58:18.800Z,11.80
2018-09-29T20:00:45.755Z,10.60
2018-09-29T20:03:12.477Z,8.90
2018-09-29T20:05:39.329Z,13.43
2018-09-29T20:08:06.273Z,12.90
2018-09-29T20:10:34.981Z,15.23
2018-09-29T20:13:03.258Z,12.43
2018-09-29T20:15:30.169Z,10.17
2018-09-29T20:17:57.769Z,15.30
2018-09-29T20:20:24.859Z,14.50
2018-09-29T20:22:51.618Z,11.60
2018-09-29T20:25:18.531Z,14.73
2018-09-29T20:27:45.312Z,16.60
2018-09-29T20:30:12.660Z,15.93
2018-09-29T20:32:39.544Z,13.33
2018-09-29T20:35:06.520Z,12.90
2018-09-29T20:37:33.444Z,8.50
2018-09-29T20:40:00.393Z,13.03
2018-09-29T20:42:27.242Z,11.57
2018-09-29T20:44:53.936Z,9.10
2018-09-29T20:47:20.869Z,10.33
2018-09-29T20:49:47.807Z,10.50
2018-09-29T20:52:14.592Z,7.70
2018-09-29T20:54:41.335Z,9.80
2018-09-29T20:57:08.190Z,12.23
2018-09-29T20:59:35.122Z,9.57
2018-09-29T21:02:02.069Z,9.70
2018-09-29T21:04:28.820Z,11.37
2018-09-29T21:06:56.257Z,8.43
2018-09-29T21:09:22.979Z,10.80
2018-09-29T21:11:49.742Z,10.60
2018-09-29T21:14:16.591Z,8.93
2018-09-29T21:16:43.350Z,8.53
2018-09-29T21:19:10.203Z,8.80
2018-09-29T21:21:37.085Z,9.27
2018-09-29T21:24:03.819Z,7.63
2018-09-29T21:26:30.725Z,11.27
2018-09-29T21:28:57.479Z,6.20
2018-09-29T21:31:25.825Z,6.00
2018-09-29T21:33:52.665Z,6.67
2018-09-29T21:36:20.693Z,10.83
2018-09-29T21:38:47.619Z,10.33
2018-09-29T21:41:15.068Z,8.67
2018-09-29T21:43:41.917Z,8.07
2018-09-29T21:46:08.761Z,8.40
2018-09-29T21:48:36.348Z,6.90
2018-09-29T21:51:03.139Z,8.93
2018-09-29T21:53:29.828Z,8.13
2018-09-29T21:55:56.650Z,7.23
2018-09-29T21:58:23.310Z,6.50
2018-09-29T22:00:50.253Z,4.60
2018-09-29T22:03:17.526Z,5.87
2018-09-29T22:05:45.034Z,6.87
2018-09-29T22:08:12.072Z,8.03
2018-09-29T22:10:39.554Z,5.33
2018-09-29T22:13:06.377Z,4.53
2018-09-29T22:15:33.147Z,5.40
2018-09-29T22:17:59.835Z,5.40
2018-09-29T22:20:26.687Z,3.90
2018-09-29T22:22:53.422Z,4.40
2018-09-29T22:25:20.271Z,5.17
2018-09-29T22:27:47.051Z,4.87
2018-09-29T22:30:13.841Z,5.50
2018-09-29T22:32:40.658Z,6.03
2018-09-29T22:35:07.500Z,6.63
2018-09-29T22:37:34.293Z,5.73
2018-09-29T22:40:01.105Z,6.03
2018-09-29T22:42:29.353Z,7.43
2018-09-29T22:44:56.139Z,5.37
2018-09-29T22:47:23.053Z,5.63
2018-09-29T22:49:49.894Z,6.20
2018-09-29T22:52:16.943Z,6.00
2018-09-29T22:54:43.979Z,8.87
2018-09-29T22:57:10.699Z,5.03
2018-09-29T22:59:37.627Z,5.90
2018-09-29T23:02:04.499Z,3.87
2018-09-29T23:04:31.489Z,4.00
2018-09-29T23:06:58.197Z,5.07
2018-09-29T23:09:25.539Z,8.53
2018-09-29T23:11:53.128Z,4.90
2018-09-29T23:14:20.172Z,5.10
2018-09-29T23:16:47.145Z,6.90
2018-09-29T23:19:14.072Z,6.23
2018-09-29T23:21:40.907Z,10.60
2018-09-29T23:24:07.699Z,5.17
2018-09-29T23:26:34.575Z,5.80
2018-09-29T23:29:01.517Z,3.27
2018-09-29T23:31:28.342Z,5.43
2018-09-29T23:33:55.047Z,4.33
2018-09-29T23:36:22.084Z,3.30
2018-09-29T23:39:03.066Z,3.83
2018-09-29T23:41:30.488Z,5.57
2018-09-29T23:43:57.164Z,6.43
2018-09-29T23:46:23.822Z,4.10
2018-09-29T23:48:50.655Z,5.13
2018-09-29T23:51:17.499Z,6.40
2018-09-29T23:53:44.353Z,4.37
2018-09-29T23:56:11.295Z,5.30
2018-09-29T23:58:38.075Z,3.03
